Time;durP1;ratioP1;P1;durP2;ratioP2;P2;SDS_P1;SDS_P2;PMS_P1;PMS_P2;Temp;Humidity;BMP_temperature;BMP_pressure;BME280_temperature;BME280_humidity;BME280_pressure;Samples;Min_cycle;Max_cycle;Signal;HPM_P1;HPM_P2
2022/06/26 00:01:52;;;;;;;8.13;6.47;;;21.10;99.90;;;;;;5133100;27;20025;-89
2022/06/26 00:04:17;;;;;;;7.72;6.93;;;21.10;99.90;;;;;;5137908;27;20033;-90
2022/06/26 00:06:43;;;;;;;10.85;7.65;;;21.10;99.90;;;;;;5051499;28;20512;-90
2022/06/26 00:09:09;;;;;;;9.32;7.10;;;21.10;99.90;;;;;;5051717;28;20468;-89
2022/06/26 00:11:34;;;;;;;12.10;7.63;;;21.10;99.90;;;;;;5138145;27;20052;-89
2022/06/26 00:14:00;;;;;;;8.20;6.88;;;21.10;99.90;;;;;;5132242;27;20025;-89
2022/06/26 00:16:28;;;;;;;9.30;7.93;;;21.10;99.90;;;;;;5014468;28;20541;-91
2022/06/26 00:18:56;;;;;;;7.82;7.03;;;21.10;99.90;;;;;;5032927;28;20017;-88
2022/06/26 00:21:24;;;;;;;9.70;8.52;;;21.10;99.90;;;;;;5137816;27;20025;-88
2022/06/26 00:23:53;;;;;;;9.00;7.32;;;21.10;99.90;;;;;;5033443;28;20120;-87
2022/06/26 00:26:18;;;;;;;8.48;7.57;;;21.10;99.90;;;;;;5137855;27;20021;-87
2022/06/26 00:28:44;;;;;;;10.05;8.23;;;21.10;99.90;;;;;;5136145;27;20031;-87
2022/06/26 00:31:12;;;;;;;29.65;9.02;;;21.00;99.90;;;;;;5033936;28;20037;-87
2022/06/26 00:33:38;;;;;;;11.80;8.70;;;21.00;99.90;;;;;;5051462;28;20101;-88
2022/06/26 00:36:07;;;;;;;11.38;8.93;;;21.00;99.90;;;;;;5033590;28;20018;-88
2022/06/26 00:38:35;;;;;;;9.43;8.43;;;21.00;99.90;;;;;;5027313;28;20554;-88
2022/06/26 00:41:04;;;;;;;9.93;8.93;;;21.00;99.90;;;;;;5128415;27;20116;-88
2022/06/26 00:43:30;;;;;;;9.95;8.18;;;21.00;99.90;;;;;;5034351;28;20057;-88
2022/06/26 00:45:55;;;;;;;10.50;8.40;;;20.90;99.90;;;;;;5047946;28;20017;-86
2022/06/26 00:48:30;;;;;;;11.82;8.98;;;20.90;99.90;;;;;;5041202;28;20009;-87
2022/06/26 00:50:59;;;;;;;10.63;9.52;;;20.90;99.90;;;;;;5057895;28;20013;-87
2022/06/26 00:53:25;;;;;;;13.60;9.65;;;20.80;99.90;;;;;;5057651;28;20005;-87
2022/06/26 00:55:53;;;;;;;10.60;9.15;;;20.80;99.90;;;;;;5057595;28;20017;-87
2022/06/26 00:58:21;;;;;;;12.32;9.82;;;20.80;99.90;;;;;;5074552;28;20013;-87
2022/06/26 01:00:47;;;;;;;11.52;9.65;;;20.70;99.90;;;;;;5057480;28;20041;-87
2022/06/26 01:03:18;;;;;;;12.35;9.07;;;20.70;99.90;;;;;;5056338;28;20048;-88
2022/06/26 01:05:44;;;;;;;10.30;9.25;;;20.70;99.90;;;;;;5034358;28;20048;-89
2022/06/26 01:08:12;;;;;;;12.52;10.50;;;20.70;99.90;;;;;;5033905;28;20387;-88
2022/06/26 01:10:38;;;;;;;11.38;10.15;;;20.70;99.90;;;;;;5033630;28;20491;-89
2022/06/26 01:13:07;;;;;;;10.85;9.73;;;20.70;99.90;;;;;;5137658;27;20040;-88
2022/06/26 01:15:33;;;;;;;13.70;9.95;;;20.70;99.90;;;;;;5033875;28;20017;-89
2022/06/26 01:17:59;;;;;;;11.30;9.27;;;20.60;99.90;;;;;;5033525;28;20032;-86
2022/06/26 01:20:25;;;;;;;10.40;9.35;;;20.70;99.90;;;;;;5033612;28;20037;-89
2022/06/26 01:23:01;;;;;;;11.10;9.85;;;20.60;99.90;;;;;;5154194;27;20037;-88
2022/06/26 01:25:47;;;;;;;10.30;9.25;;;20.60;99.90;;;;;;5044769;27;20060;-89
2022/06/26 01:28:13;;;;;;;11.57;9.88;;;20.60;99.90;;;;;;5022743;28;20053;-90
2022/06/26 01:30:39;;;;;;;10.95;9.77;;;20.60;99.90;;;;;;5050865;28;20020;-90
2022/06/26 01:33:06;;;;;;;10.85;9.75;;;20.50;99.90;;;;;;5033481;28;20060;-90
2022/06/26 01:35:32;;;;;;;11.02;9.93;;;20.50;99.90;;;;;;5047134;28;20074;-91
2022/06/26 01:38:21;;;;;;;10.77;9.68;;;20.50;99.90;;;;;;5127103;27;20041;-91
2022/06/26 01:40:48;;;;;;;11.93;10.73;;;20.50;99.90;;;;;;5103148;28;20035;-91
2022/06/26 01:43:25;;;;;;;13.27;10.30;;;20.50;99.90;;;;;;5032846;28;20036;-91
2022/06/26 01:45:57;;;;;;;12.77;10.90;;;20.40;99.90;;;;;;5033027;28;20483;-90
2022/06/26 01:48:32;;;;;;;12.30;11.10;;;20.40;99.90;;;;;;5034865;28;20025;-90
2022/06/26 01:50:58;;;;;;;11.82;10.68;;;20.50;99.90;;;;;;5036644;28;20021;-90
2022/06/26 01:53:25;;;;;;;12.02;10.50;;;20.50;99.90;;;;;;5036557;28;20530;-91
2022/06/26 01:55:51;;;;;;;13.10;11.32;;;20.50;99.90;;;;;;5036813;28;20049;-90
2022/06/26 01:58:17;;;;;;;13.18;11.43;;;20.50;99.90;;;;;;5036562;27;20384;-91
2022/06/26 02:00:50;;;;;;;12.75;11.55;;;20.50;99.90;;;;;;5123496;27;20492;-90
2022/06/26 02:03:16;;;;;;;12.65;11.55;;;20.50;99.90;;;;;;5047554;27;20033;-91
2022/06/26 02:05:42;;;;;;;13.32;11.93;;;20.50;99.90;;;;;;5097489;27;20021;-91
2022/06/26 02:08:08;;;;;;;13.95;12.10;;;20.40;99.90;;;;;;5140435;27;20032;-90
2022/06/26 02:13:36;;;;;;;13.30;11.95;;;20.40;99.90;;;;;;5126968;27;20039;-90
2022/06/26 02:16:26;;;;;;;12.63;11.43;;;20.40;99.90;;;;;;5036364;28;20491;-91
2022/06/26 02:18:56;;;;;;;12.40;11.10;;;20.40;99.90;;;;;;5035951;28;20126;-90
2022/06/26 02:21:24;;;;;;;12.27;11.07;;;20.40;99.90;;;;;;5112018;27;20496;-90
2022/06/26 02:23:59;;;;;;;12.07;10.88;;;20.40;99.90;;;;;;5106878;27;20032;-91
2022/06/26 02:26:25;;;;;;;12.43;11.20;;;20.30;99.90;;;;;;5036085;28;20082;-90
2022/06/26 02:28:53;;;;;;;12.45;11.15;;;20.30;99.90;;;;;;5152517;27;20029;-91
2022/06/26 02:31:23;;;;;;;14.30;11.55;;;20.30;99.90;;;;;;5094523;27;20028;-90
2022/06/26 02:33:49;;;;;;;11.88;10.68;;;20.30;99.90;;;;;;5019077;28;20449;-91
2022/06/26 02:36:17;;;;;;;11.43;9.20;;;20.30;99.90;;;;;;5035611;28;20055;-90
2022/06/26 02:38:47;;;;;;;11.15;9.98;;;20.30;99.90;;;;;;5136236;27;20049;-90
2022/06/26 02:41:13;;;;;;;10.95;9.95;;;20.20;99.90;;;;;;5109202;27;20032;-89
2022/06/26 02:43:39;;;;;;;11.55;9.85;;;20.20;99.90;;;;;;5125048;27;20022;-90
2022/06/26 02:46:05;;;;;;;11.88;9.63;;;20.20;99.90;;;;;;5035909;28;20029;-91
2022/06/26 02:48:32;;;;;;;10.75;9.65;;;20.20;99.90;;;;;;5035833;28;20025;-90
2022/06/26 02:51:15;;;;;;;10.85;9.75;;;20.20;99.90;;;;;;5021196;28;20021;-90
2022/06/26 02:53:41;;;;;;;11.23;9.38;;;20.20;99.90;;;;;;5092004;27;20067;-90
2022/06/26 02:56:09;;;;;;;11.18;9.65;;;20.20;99.90;;;;;;5035615;28;20020;-90
2022/06/26 02:58:35;;;;;;;11.10;10.00;;;20.20;99.90;;;;;;5018934;28;20026;-90
2022/06/26 03:01:00;;;;;;;10.27;9.18;;;20.20;99.90;;;;;;5035050;28;20031;-90
2022/06/26 03:03:26;;;;;;;11.00;9.90;;;20.10;99.90;;;;;;5035213;28;20384;-89
2022/06/26 03:05:52;;;;;;;12.23;9.77;;;20.10;99.90;;;;;;5139225;27;20441;-90
2022/06/26 03:08:20;;;;;;;14.75;11.18;;;20.00;99.90;;;;;;5018742;28;20450;-90
2022/06/26 03:10:50;;;;;;;11.27;10.18;;;20.00;99.90;;;;;;5034827;28;20029;-90
2022/06/26 03:13:17;;;;;;;13.83;11.40;;;19.90;99.90;;;;;;5053119;28;20467;-90
2022/06/26 03:15:46;;;;;;;12.25;10.52;;;19.80;99.90;;;;;;5022198;28;20772;-89
2022/06/26 03:18:11;;;;;;;13.20;11.70;;;19.80;99.90;;;;;;5130121;27;20035;-90
2022/06/26 03:20:40;;;;;;;15.13;11.27;;;19.70;99.90;;;;;;5035042;28;20021;-90
2022/06/26 03:23:07;;;;;;;16.15;11.50;;;19.70;99.90;;;;;;5035117;28;20035;-89
2022/06/26 03:25:35;;;;;;;14.18;12.38;;;19.60;99.90;;;;;;5052185;28;20028;-91
2022/06/26 03:28:04;;;;;;;15.45;13.30;;;19.60;99.90;;;;;;5020943;28;20021;-90
2022/06/26 03:30:29;;;;;;;14.90;12.43;;;19.50;99.90;;;;;;5034766;28;20084;-88
2022/06/26 03:32:55;;;;;;;16.45;13.00;;;19.50;99.90;;;;;;5034451;28;20539;-89
2022/06/26 03:35:24;;;;;;;15.80;13.57;;;19.50;99.90;;;;;;5034591;28;20025;-90
2022/06/26 03:37:51;;;;;;;13.70;12.18;;;19.50;99.90;;;;;;5052603;28;20101;-91
2022/06/26 03:40:17;;;;;;;15.10;13.50;;;19.50;99.90;;;;;;5035663;28;20021;-91
2022/06/26 03:43:11;;;;;;;15.52;13.93;;;19.40;99.90;;;;;;5034614;28;20036;-91
2022/06/26 03:45:44;;;;;;;16.08;13.35;;;19.40;99.90;;;;;;5021744;28;20391;-91
2022/06/26 03:48:10;;;;;;;15.18;13.60;;;19.40;99.90;;;;;;5035031;28;20028;-92
2022/06/26 03:50:38;;;;;;;14.48;12.57;;;19.40;99.90;;;;;;5048977;28;20021;-91
2022/06/26 03:53:04;;;;;;;15.65;13.75;;;19.40;99.90;;;;;;5139038;27;20036;-90
2022/06/26 03:55:29;;;;;;;17.52;14.77;;;19.40;99.90;;;;;;5031554;28;20037;-91
2022/06/26 03:57:55;;;;;;;16.05;14.02;;;19.40;99.90;;;;;;5029861;28;20057;-91
2022/06/26 04:00:21;;;;;;;17.90;15.02;;;19.40;99.90;;;;;;5025890;28;20461;-91
2022/06/26 04:02:49;;;;;;;16.27;14.50;;;19.30;99.90;;;;;;5028295;28;20021;-90
2022/06/26 04:05:17;;;;;;;17.65;15.48;;;19.30;99.90;;;;;;5028766;28;20029;-90
2022/06/26 04:07:43;;;;;;;16.80;15.00;;;19.30;99.90;;;;;;5033946;28;20021;-90
2022/06/26 04:10:08;;;;;;;18.95;15.68;;;19.30;99.90;;;;;;5129641;27;20529;-89
2022/06/26 04:12:34;;;;;;;17.35;14.73;;;19.30;99.90;;;;;;5030471;28;20028;-89
2022/06/26 04:15:02;;;;;;;18.73;16.02;;;19.30;99.90;;;;;;5024445;28;20442;-90
2022/06/26 04:17:28;;;;;;;19.08;15.38;;;19.20;99.90;;;;;;5034479;28;20029;-89
2022/06/26 04:19:53;;;;;;;18.48;16.05;;;19.20;99.90;;;;;;5034480;28;20075;-89
2022/06/26 04:22:22;;;;;;;18.27;15.15;;;19.20;99.90;;;;;;5033588;28;20561;-89
2022/06/26 04:24:52;;;;;;;16.30;14.00;;;19.10;99.90;;;;;;5051965;28;20032;-89
2022/06/26 04:27:18;;;;;;;18.48;15.32;;;19.10;99.90;;;;;;5138773;27;20025;-90
2022/06/26 04:29:44;;;;;;;19.38;15.40;;;19.00;99.90;;;;;;5022957;28;20028;-90
2022/06/26 04:32:14;;;;;;;21.27;16.40;;;19.00;99.90;;;;;;5058005;28;20014;-89
2022/06/26 04:34:41;;;;;;;;;;;19.00;99.90;;;;;;5058180;28;20009;-90
2022/06/26 04:37:06;;;;;;;17.58;13.98;;;19.00;99.90;;;;;;5161566;27;19897;-91
2022/06/26 04:39:35;;;;;;;17.88;13.90;;;18.90;99.90;;;;;;5147424;27;20016;-90
2022/06/26 04:42:18;;;;;;;20.40;14.70;;;18.90;99.90;;;;;;5057799;28;20028;-89
2022/06/26 04:44:44;;;;;;;19.23;14.90;;;18.90;99.90;;;;;;5162077;27;20009;-87
2022/06/26 04:47:34;;;;;;;16.00;13.70;;;18.90;99.90;;;;;;5058223;28;20040;-90
2022/06/26 04:50:00;;;;;;;18.70;13.75;;;18.90;99.90;;;;;;5035698;28;20017;-90
2022/06/26 04:52:28;;;;;;;18.52;14.40;;;18.90;99.90;;;;;;5034261;28;20025;-89
2022/06/26 04:54:56;;;;;;;17.02;13.60;;;18.90;99.90;;;;;;5138447;27;20032;-89
2022/06/26 04:57:22;;;;;;;17.75;13.77;;;18.80;99.90;;;;;;5049914;28;20032;-89
2022/06/26 04:59:48;;;;;;;15.98;13.20;;;18.80;99.90;;;;;;5125954;27;20021;-90
2022/06/26 05:02:19;;;;;;;18.52;14.10;;;18.80;99.90;;;;;;5028091;28;20087;-90
2022/06/26 05:04:45;;;;;;;17.00;12.98;;;18.80;99.90;;;;;;5110905;27;20025;-89
2022/06/26 05:07:14;;;;;;;15.68;13.70;;;18.80;99.90;;;;;;5033634;28;20047;-91
2022/06/26 05:09:45;;;;;;;18.90;14.15;;;18.70;99.90;;;;;;5033497;28;20165;-90
2022/06/26 05:12:13;;;;;;;;;;;18.70;99.90;;;;;;5023605;28;20357;-91
2022/06/26 05:14:42;;;;;;;19.20;14.73;;;18.70;99.90;;;;;;5030443;28;19912;-90
2022/06/26 05:17:09;;;;;;;19.40;16.42;;;18.70;99.90;;;;;;5033748;28;20464;-91
2022/06/26 05:19:38;;;;;;;21.48;18.30;;;18.70;99.90;;;;;;5033587;28;20025;-89
2022/06/26 05:22:08;;;;;;;19.75;16.85;;;18.70;99.90;;;;;;5032293;28;20025;-90
2022/06/26 05:24:37;;;;;;;18.70;15.45;;;18.70;99.90;;;;;;5017110;28;20057;-90
2022/06/26 05:27:06;;;;;;;18.08;15.38;;;18.70;99.90;;;;;;5032906;28;20028;-91
2022/06/26 05:29:35;;;;;;;20.67;16.23;;;18.60;99.90;;;;;;5033614;28;20017;-91
2022/06/26 05:32:00;;;;;;;19.30;15.13;;;18.60;99.90;;;;;;5028258;28;20018;-91
2022/06/26 05:34:26;;;;;;;20.85;15.88;;;18.60;99.90;;;;;;5024885;28;20025;-91
2022/06/26 05:36:52;;;;;;;18.02;14.23;;;18.60;99.90;;;;;;5032663;28;20041;-89
2022/06/26 05:39:21;;;;;;;19.77;14.95;;;18.60;99.90;;;;;;5127123;28;20029;-91
2022/06/26 05:41:46;;;;;;;18.33;14.13;;;18.50;99.90;;;;;;5035213;28;20103;-91
2022/06/26 05:44:15;;;;;;;18.13;13.25;;;18.50;99.90;;;;;;5034266;28;20029;-91
2022/06/26 05:46:42;;;;;;;17.48;13.90;;;18.50;99.90;;;;;;5033186;28;20104;-92
2022/06/26 05:49:10;;;;;;;19.77;13.65;;;18.40;99.90;;;;;;5033281;28;20048;-91
2022/06/26 05:51:44;;;;;;;19.00;13.15;;;18.40;99.90;;;;;;5033030;28;20028;-90
2022/06/26 05:54:09;;;;;;;16.73;13.13;;;18.50;99.90;;;;;;5116205;28;20022;-89
2022/06/26 05:56:38;;;;;;;15.68;12.88;;;18.50;99.90;;;;;;5032739;28;20025;-90
2022/06/26 05:59:06;;;;;;;17.30;12.73;;;18.50;99.90;;;;;;5050491;28;20024;-89
2022/06/26 06:01:32;;;;;;;17.02;12.85;;;18.50;99.90;;;;;;5033039;28;20527;-89
2022/06/26 06:04:09;;;;;;;18.63;12.80;;;18.50;99.90;;;;;;5033408;28;20170;-88
2022/06/26 06:06:35;;;;;;;16.58;11.63;;;18.50;99.90;;;;;;5026491;28;20475;-89
2022/06/26 06:09:01;;;;;;;16.42;11.30;;;18.50;99.90;;;;;;5014022;28;20106;-89
2022/06/26 06:11:26;;;;;;;16.02;10.85;;;18.50;99.90;;;;;;5136933;27;20021;-89
2022/06/26 06:13:52;;;;;;;15.38;11.63;;;18.50;99.90;;;;;;5033127;28;20375;-89
2022/06/26 06:16:18;;;;;;;16.10;11.35;;;18.50;99.90;;;;;;5032706;28;20104;-90
2022/06/26 06:18:44;;;;;;;14.90;11.38;;;18.50;99.90;;;;;;5136717;27;20052;-89
2022/06/26 06:21:09;;;;;;;13.90;10.80;;;18.50;99.90;;;;;;5032542;28;20021;-88
2022/06/26 06:23:37;;;;;;;12.90;10.23;;;18.50;99.90;;;;;;5032606;28;20052;-88
2022/06/26 06:26:06;;;;;;;14.13;11.63;;;18.60;99.90;;;;;;5018371;28;20123;-89
2022/06/26 06:28:31;;;;;;;13.98;11.30;;;18.60;99.90;;;;;;5136576;27;20025;-89
2022/06/26 06:30:57;;;;;;;13.98;10.98;;;18.70;99.90;;;;;;5122955;27;20129;-88
2022/06/26 06:33:25;;;;;;;14.40;11.45;;;18.70;99.90;;;;;;5136119;27;20032;-87
2022/06/26 06:35:54;;;;;;;13.43;10.20;;;18.70;99.90;;;;;;5035639;28;20036;-87
2022/06/26 06:38:23;;;;;;;12.35;9.57;;;18.70;99.90;;;;;;5035545;28;20041;-89
2022/06/26 06:40:51;;;;;;;12.23;9.40;;;18.80;99.90;;;;;;5035855;28;20456;-89
2022/06/26 06:43:20;;;;;;;9.77;8.63;;;18.80;99.90;;;;;;5115137;27;20465;-89
2022/06/26 06:45:46;;;;;;;10.07;8.27;;;18.80;99.90;;;;;;5125144;27;20026;-89
2022/06/26 06:48:13;;;;;;;14.93;9.75;;;18.90;99.90;;;;;;5125429;27;20392;-89
2022/06/26 06:50:40;;;;;;;12.75;8.45;;;18.90;99.90;;;;;;5140035;27;20057;-88
2022/06/26 06:53:08;;;;;;;11.02;7.55;;;19.00;99.90;;;;;;5019214;28;20033;-89
2022/06/26 06:55:34;;;;;;;10.02;7.30;;;19.00;99.90;;;;;;5021865;28;20052;-89
2022/06/26 06:58:05;;;;;;;9.35;7.28;;;19.10;99.90;;;;;;5121834;27;20021;-88
2022/06/26 07:00:30;;;;;;;;;;;19.10;99.90;;;;;;5120690;27;20460;-89
2022/06/26 07:03:01;;;;;;;9.25;6.90;;;19.10;99.90;;;;;;5034888;28;19920;-88
2022/06/26 07:05:27;;;;;;;10.90;7.88;;;19.20;99.90;;;;;;5052783;28;20053;-88
2022/06/26 07:07:58;;;;;;;11.98;7.60;;;19.20;99.90;;;;;;5034710;28;20022;-88
2022/06/26 07:10:30;;;;;;;12.73;6.50;;;19.30;99.90;;;;;;5032756;28;20390;-89
2022/06/26 07:13:02;;;;;;;9.63;5.78;;;19.30;99.90;;;;;;5028147;28;20078;-87
2022/06/26 07:15:30;;;;;;;10.00;6.28;;;19.30;99.90;;;;;;5034819;28;20115;-88
2022/06/26 07:17:55;;;;;;;9.40;6.70;;;19.30;99.90;;;;;;5114609;27;20132;-89
2022/06/26 07:20:24;;;;;;;9.48;6.95;;;19.40;99.90;;;;;;5031443;28;20037;-89
2022/06/26 07:22:49;;;;;;;9.68;6.40;;;19.50;99.90;;;;;;5132232;27;20025;-89
2022/06/26 07:25:15;;;;;;;8.07;5.78;;;19.50;99.90;;;;;;5045598;28;20057;-88
2022/06/26 07:27:44;;;;;;;8.88;5.70;;;19.60;99.90;;;;;;5130077;27;20515;-88
2022/06/26 07:30:10;;;;;;;7.13;5.43;;;19.70;99.90;;;;;;5034541;28;20025;-87
2022/06/26 07:32:36;;;;;;;8.93;5.13;;;19.70;99.90;;;;;;5031934;28;20357;-88
2022/06/26 07:35:04;;;;;;;8.95;5.30;;;19.70;99.90;;;;;;5135920;27;20029;-89
2022/06/26 07:37:32;;;;;;;7.25;4.60;;;19.80;99.90;;;;;;5031546;28;20128;-88
2022/06/26 07:39:58;;;;;;;5.80;3.35;;;19.80;99.90;;;;;;5144521;27;20029;-88
2022/06/26 07:42:24;;;;;;;6.35;3.85;;;19.90;99.90;;;;;;5073698;27;20025;-89
2022/06/26 07:44:53;;;;;;;6.68;3.92;;;20.00;99.90;;;;;;5132713;27;20032;-89
2022/06/26 07:47:22;;;;;;;7.60;4.20;;;20.00;99.90;;;;;;5043756;28;20028;-89
2022/06/26 07:49:48;;;;;;;6.45;3.80;;;20.10;99.90;;;;;;5125573;27;20017;-85
2022/06/26 07:52:16;;;;;;;5.93;3.58;;;20.20;99.90;;;;;;5126792;27;20026;-89
2022/06/26 07:54:42;;;;;;;6.05;3.55;;;20.30;99.90;;;;;;5128408;27;20064;-89
2022/06/26 07:57:10;;;;;;;8.35;3.35;;;20.30;99.90;;;;;;5031751;28;20580;-89
2022/06/26 07:59:38;;;;;;;5.35;3.08;;;20.40;99.90;;;;;;5138528;27;20036;-89
2022/06/26 08:02:06;;;;;;;5.53;3.20;;;20.40;99.90;;;;;;5018228;28;20029;-88
2022/06/26 08:04:35;;;;;;;5.70;3.00;;;20.50;99.90;;;;;;5135740;27;20380;-88
2022/06/26 08:07:05;;;;;;;7.18;3.00;;;20.50;99.90;;;;;;5034889;28;20448;-87
2022/06/26 08:09:33;;;;;;;5.70;3.10;;;20.70;99.90;;;;;;5070417;27;20037;-89
2022/06/26 08:11:59;;;;;;;5.20;2.85;;;20.70;99.90;;;;;;5135528;27;20018;-88
2022/06/26 08:14:25;;;;;;;9.00;3.55;;;20.80;99.90;;;;;;5032214;28;20021;-87
2022/06/26 08:16:51;;;;;;;5.65;2.83;;;20.90;99.90;;;;;;5054521;28;20031;-89
2022/06/26 08:19:16;;;;;;;4.85;2.42;;;21.00;99.90;;;;;;5157292;27;20021;-88
2022/06/26 08:22:00;;;;;;;7.30;3.47;;;21.00;99.90;;;;;;5180128;27;20041;-88
2022/06/26 08:24:26;;;;;;;4.20;2.55;;;21.10;99.90;;;;;;5077734;27;20031;-88
2022/06/26 08:26:52;;;;;;;6.28;2.88;;;21.10;99.90;;;;;;5077755;27;20021;-88
2022/06/26 08:29:18;;;;;;;9.02;3.08;;;21.10;99.90;;;;;;5118217;27;20106;-87
2022/06/26 08:31:44;;;;;;;4.53;2.42;;;21.20;99.90;;;;;;5080217;27;20016;-86
2022/06/26 08:34:10;;;;;;;5.03;2.60;;;21.20;99.90;;;;;;5083234;27;20023;-87
2022/06/26 08:36:36;;;;;;;7.60;2.60;;;21.20;99.90;;;;;;5057985;27;20387;-88
2022/06/26 08:39:01;;;;;;;7.15;2.83;;;21.30;99.90;;;;;;5038562;27;20057;-89
2022/06/26 08:41:29;;;;;;;5.60;2.63;;;21.40;99.90;;;;;;5033139;28;20517;-86
2022/06/26 08:44:00;;;;;;;4.03;2.47;;;21.40;99.90;;;;;;5047636;27;20468;-89
2022/06/26 08:46:29;;;;;;;7.38;3.13;;;21.40;99.90;;;;;;5087036;27;20406;-89
2022/06/26 08:49:01;;;;;;;5.25;2.97;;;21.50;99.90;;;;;;5062295;27;20056;-90
2022/06/26 08:51:27;;;;;;;8.60;3.05;;;21.50;99.90;;;;;;5054979;27;20022;-89
2022/06/26 08:53:53;;;;;;;6.82;3.05;;;21.50;99.90;;;;;;5133509;27;20060;-88
2022/06/26 08:56:19;;;;;;;8.93;3.60;;;21.50;99.90;;;;;;5126540;27;20029;-89
2022/06/26 08:58:45;;;;;;;4.97;3.10;;;21.50;99.90;;;;;;5097680;27;20021;-89
2022/06/26 09:01:10;;;;;;;7.40;3.30;;;21.50;99.90;;;;;;5021748;28;20029;-89
2022/06/26 09:03:36;;;;;;;6.80;3.55;;;21.50;99.90;;;;;;5122603;27;20053;-90
2022/06/26 09:06:03;;;;;;;6.75;3.13;;;21.60;99.90;;;;;;5100887;28;20116;-81
2022/06/26 09:08:30;;;;;;;8.85;3.70;;;21.50;99.90;;;;;;5128317;27;20022;-81
2022/06/26 09:10:57;;;;;;;6.25;3.72;;;21.50;99.90;;;;;;5093774;28;20029;-82
2022/06/26 09:13:22;;;;;;;6.00;3.30;;;21.50;99.90;;;;;;5108641;27;20032;-81
2022/06/26 09:15:50;;;;;;;6.55;3.20;;;21.50;99.90;;;;;;5031897;28;20036;-81
2022/06/26 09:18:16;;;;;;;7.32;3.08;;;21.50;99.90;;;;;;5116833;27;20482;-81
2022/06/26 09:20:55;;;;;;;7.22;3.97;;;21.60;99.90;;;;;;5032099;28;20025;-81
2022/06/26 09:23:22;;;;;;;6.75;3.58;;;21.60;99.90;;;;;;5135776;27;20032;-81
2022/06/26 09:25:48;;;;;;;6.82;3.30;;;21.60;99.90;;;;;;5135715;27;20095;-82
2022/06/26 09:28:20;;;;;;;6.15;3.50;;;21.60;99.90;;;;;;5006138;28;20034;-81
2022/06/26 09:31:00;;;;;;;4.55;2.60;;;21.60;99.90;;;;;;5030309;28;20549;-81
2022/06/26 09:33:32;;;;;;;6.07;3.13;;;21.60;99.90;;;;;;5048607;28;20024;-81
2022/06/26 09:35:59;;;;;;;6.32;2.85;;;21.60;99.90;;;;;;5091762;27;20023;-83
2022/06/26 09:38:27;;;;;;;5.53;3.30;;;21.60;99.70;;;;;;5094993;27;20043;-83
2022/06/26 09:41:00;;;;;;;7.07;3.00;;;21.60;99.70;;;;;;5141239;27;20046;-83
2022/06/26 09:43:26;;;;;;;5.03;3.25;;;21.60;99.80;;;;;;5127432;27;20488;-84
2022/06/26 09:45:54;;;;;;;5.82;3.05;;;21.60;99.80;;;;;;5122300;27;20031;-83
2022/06/26 09:48:22;;;;;;;7.93;3.58;;;21.60;99.90;;;;;;5108801;27;20024;-83
2022/06/26 09:50:49;;;;;;;5.07;3.13;;;21.60;99.90;;;;;;5081720;28;20029;-85
2022/06/26 09:53:15;;;;;;;7.07;3.33;;;21.70;99.90;;;;;;5107117;28;20434;-88
2022/06/26 09:55:41;;;;;;;9.38;4.13;;;21.70;99.60;;;;;;5049852;28;20033;-88
2022/06/26 09:58:08;;;;;;;9.20;3.25;;;21.70;99.70;;;;;;5110702;28;20025;-88
2022/06/26 10:00:37;;;;;;;8.30;3.72;;;21.70;99.90;;;;;;5125216;27;20025;-87
2022/06/26 10:08:44;;;;;;;7.43;3.70;;;21.90;99.80;;;;;;5045803;28;20082;-88
2022/06/26 10:11:10;;;;;;;6.72;3.50;;;21.90;99.70;;;;;;5044126;28;20021;-88
2022/06/26 10:13:39;;;;;;;7.30;3.95;;;21.90;99.40;;;;;;5113422;27;20021;-87
2022/06/26 10:16:08;;;;;;;5.53;3.75;;;21.80;99.30;;;;;;5056287;27;20019;-88
2022/06/26 10:19:11;;;;;;;5.97;3.35;;;21.80;99.40;;;;;;5102597;27;20457;-88
2022/06/26 10:21:38;;;;;;;6.68;3.45;;;21.90;99.50;;;;;;5085187;27;20022;-88
2022/06/26 10:24:05;;;;;;;5.50;3.15;;;21.90;99.20;;;;;;5085094;27;20017;-88
2022/06/26 10:26:32;;;;;;;6.68;3.67;;;21.90;99.20;;;;;;5032181;28;21708;-88
2022/06/26 10:29:02;;;;;;;7.72;4.00;;;21.90;99.40;;;;;;5113875;27;20485;-88
2022/06/26 10:31:47;;;;;;;6.25;3.53;;;21.90;99.20;;;;;;5047936;27;20352;-88
2022/06/26 10:34:19;;;;;;;7.68;3.47;;;21.90;99.00;;;;;;5022751;28;20021;-88
2022/06/26 10:37:13;;;;;;;7.68;3.55;;;21.90;98.80;;;;;;5033068;28;20021;-88
2022/06/26 10:39:41;;;;;;;7.43;3.80;;;21.90;98.70;;;;;;5100515;28;20039;-88
2022/06/26 10:45:02;;;;;;;8.27;3.80;;;21.90;98.50;;;;;;5137658;27;20554;-87
2022/06/26 10:47:54;;;;;;;8.95;3.83;;;21.90;98.50;;;;;;5136807;27;20772;-88
2022/06/26 10:50:37;;;;;;;7.53;3.75;;;21.90;98.30;;;;;;5105189;27;20485;-88
2022/06/26 10:53:25;;;;;;;7.28;3.20;;;21.90;98.30;;;;;;5118015;27;20115;-88
2022/06/26 10:56:00;;;;;;;9.40;3.63;;;21.90;98.50;;;;;;5111782;27;20031;-87
2022/06/26 10:58:35;;;;;;;8.63;3.58;;;21.90;98.50;;;;;;5119397;27;20027;-88
2022/06/26 11:01:07;;;;;;;6.88;3.60;;;21.90;98.70;;;;;;5119473;27;20019;-89
2022/06/26 11:03:34;;;;;;;9.15;3.55;;;22.00;98.90;;;;;;5137186;27;20494;-88
2022/06/26 11:06:07;;;;;;;7.63;3.65;;;22.00;98.90;;;;;;5136606;27;20031;-83
2022/06/26 11:08:36;;;;;;;5.28;2.60;;;22.00;99.10;;;;;;5136453;27;20019;-82
2022/06/26 11:11:14;;;;;;;5.78;2.30;;;22.00;97.70;;;;;;5118104;27;20023;-81
2022/06/26 11:14:00;;;;;;;6.10;2.60;;;22.00;97.10;;;;;;5136847;27;20068;-81
2022/06/26 11:16:29;;;;;;;5.25;2.55;;;22.00;97.10;;;;;;5135143;27;20023;-81
2022/06/26 11:18:55;;;;;;;4.40;2.30;;;21.90;96.40;;;;;;5118487;27;20463;-79
2022/06/26 11:21:21;;;;;;;6.28;3.22;;;21.90;96.80;;;;;;5129132;27;20019;-81
2022/06/26 11:23:51;;;;;;;7.22;2.80;;;21.90;95.80;;;;;;5118963;27;20023;-81
2022/06/26 11:26:22;;;;;;;5.83;2.87;;;21.90;96.30;;;;;;5122440;27;20028;-82
2022/06/26 11:29:03;;;;;;;7.75;3.25;;;21.90;96.70;;;;;;5128765;27;20260;-82
2022/06/26 11:31:31;;;;;;;5.57;3.10;;;21.90;97.00;;;;;;5130624;27;20023;-81
2022/06/26 11:34:18;;;;;;;5.50;2.90;;;21.90;96.80;;;;;;5127411;27;20022;-84
2022/06/26 11:36:56;;;;;;;10.75;2.95;;;21.80;97.00;;;;;;5124517;27;20027;-82
2022/06/26 11:39:23;;;;;;;6.60;3.63;;;21.90;97.30;;;;;;5088345;27;20515;-82
2022/06/26 11:41:49;;;;;;;6.57;3.17;;;21.90;97.50;;;;;;5069241;28;20501;-81
2022/06/26 11:44:15;;;;;;;5.57;3.10;;;21.80;97.60;;;;;;5033831;28;20022;-82
2022/06/26 11:46:43;;;;;;;13.88;3.55;;;21.80;97.50;;;;;;5118162;27;20374;-92
2022/06/26 11:49:13;;;;;;;6.65;3.58;;;21.80;97.80;;;;;;5080836;28;20025;-93
2022/06/26 11:51:41;;;;;;;6.55;3.47;;;21.80;97.80;;;;;;5077352;28;20029;-95
2022/06/26 11:54:09;;;;;;;6.60;2.90;;;21.80;98.30;;;;;;5075703;28;20040;-95
2022/06/26 11:56:38;;;;;;;8.43;2.90;;;21.80;98.60;;;;;;5097372;28;20030;-91
2022/06/26 11:59:03;;;;;;;4.75;2.35;;;21.80;98.20;;;;;;5102965;28;20036;-89
2022/06/26 12:01:38;;;;;;;10.38;2.78;;;21.80;97.80;;;;;;5122168;28;20018;-89
2022/06/26 12:04:06;;;;;;;7.00;2.95;;;21.70;97.80;;;;;;5122185;27;20009;-88
2022/06/26 12:06:40;;;;;;;7.07;3.03;;;21.70;98.10;;;;;;5122263;27;20020;-89
2022/06/26 12:09:19;;;;;;;7.50;2.88;;;21.70;98.30;;;;;;5052401;27;20029;-86
2022/06/26 12:11:47;;;;;;;8.15;2.67;;;21.60;98.50;;;;;;5112722;27;20021;-87
2022/06/26 12:14:16;;;;;;;8.63;3.25;;;21.60;98.70;;;;;;5048336;28;20018;-86
2022/06/26 12:16:49;;;;;;;8.55;3.63;;;21.60;98.60;;;;;;5129568;27;20019;-86
2022/06/26 12:19:16;;;;;;;4.78;2.65;;;21.60;98.80;;;;;;5066044;27;20143;-86
2022/06/26 12:21:47;;;;;;;4.43;2.33;;;21.60;99.00;;;;;;5101261;28;20041;-86
2022/06/26 12:24:14;;;;;;;4.97;2.50;;;21.60;98.80;;;;;;5116543;27;20027;-86
2022/06/26 12:26:41;;;;;;;6.18;2.35;;;21.60;98.10;;;;;;5117516;27;20068;-86
2022/06/26 12:29:14;;;;;;;5.35;2.38;;;21.50;98.20;;;;;;5045169;27;20030;-85
2022/06/26 12:31:40;;;;;;;8.45;2.55;;;21.50;98.10;;;;;;5031945;28;20027;-86
2022/06/26 12:34:06;;;;;;;6.10;2.70;;;21.40;97.70;;;;;;5029176;28;20028;-87
2022/06/26 12:36:37;;;;;;;7.20;2.42;;;21.40;98.00;;;;;;5099626;28;20025;-87
2022/06/26 12:39:03;;;;;;;7.55;2.90;;;21.40;98.20;;;;;;5115351;27;20035;-86
2022/06/26 12:41:29;;;;;;;6.43;2.95;;;21.30;98.10;;;;;;5113657;27;20027;-88
2022/06/26 12:43:57;;;;;;;6.63;2.53;;;21.30;98.20;;;;;;5108276;27;20035;-87
2022/06/26 12:46:25;;;;;;;7.78;2.30;;;21.20;98.20;;;;;;5111628;27;20051;-87
2022/06/26 12:48:50;;;;;;;5.57;2.33;;;21.20;98.20;;;;;;5112647;27;20042;-87
2022/06/26 12:51:17;;;;;;;6.15;2.55;;;21.20;97.80;;;;;;5113302;27;20015;-88
2022/06/26 12:53:43;;;;;;;4.30;2.13;;;21.10;98.10;;;;;;5110671;27;20055;-88
2022/06/26 12:56:11;;;;;;;7.07;2.10;;;21.10;98.00;;;;;;5110996;27;20073;-88
2022/06/26 12:58:40;;;;;;;4.68;2.20;;;21.10;97.80;;;;;;5110839;27;20023;-87